sensor_id;sensor_type;location;lat;lon;timestamp;pressure;altitude;pressure_sealevel;temperature;humidity
70555;BME280;58104;52.744;15.242;2022-11-22T00:01:15;99777.37;;;17.31;42.20
70555;BME280;58104;52.744;15.242;2022-11-22T00:03:41;99767.25;;;17.35;42.14
70555;BME280;58104;52.744;15.242;2022-11-22T00:06:06;99768.29;;;17.33;41.91
70555;BME280;58104;52.744;15.242;2022-11-22T00:08:32;99766.00;;;17.16;42.60
70555;BME280;58104;52.744;15.242;2022-11-22T00:10:57;99765.16;;;17.30;42.48
70555;BME280;58104;52.744;15.242;2022-11-22T00:13:23;99757.25;;;17.25;42.08
70555;BME280;58104;52.744;15.242;2022-11-22T00:15:57;99749.64;;;17.21;42.67
70555;BME280;58104;52.744;15.242;2022-11-22T00:18:14;99751.14;;;17.22;43.21
70555;BME280;58104;52.744;15.242;2022-11-22T00:20:39;99752.72;;;17.18;43.00
70555;BME280;58104;52.744;15.242;2022-11-22T00:23:05;99747.33;;;17.18;42.69
70555;BME280;58104;52.744;15.242;2022-11-22T00:25:30;99741.56;;;17.10;43.62
70555;BME280;58104;52.744;15.242;2022-11-22T00:27:56;99734.95;;;17.00;43.05
70555;BME280;58104;52.744;15.242;2022-11-22T00:30:21;99733.82;;;16.94;43.54
70555;BME280;58104;52.744;15.242;2022-11-22T00:32:47;99732.81;;;17.04;43.76
70555;BME280;58104;52.744;15.242;2022-11-22T00:35:12;99726.69;;;17.00;44.43
70555;BME280;58104;52.744;15.242;2022-11-22T00:37:37;99724.09;;;17.10;44.01
70555;BME280;58104;52.744;15.242;2022-11-22T00:40:04;99727.47;;;17.04;43.51
70555;BME280;58104;52.744;15.242;2022-11-22T00:42:29;99725.74;;;17.06;43.73
70555;BME280;58104;52.744;15.242;2022-11-22T00:44:54;99720.11;;;16.97;44.06
70555;BME280;58104;52.744;15.242;2022-11-22T00:47:19;99715.59;;;17.04;44.06
70555;BME280;58104;52.744;15.242;2022-11-22T00:49:45;99707.07;;;17.01;43.41
70555;BME280;58104;52.744;15.242;2022-11-22T00:52:10;99707.70;;;16.93;44.91
70555;BME280;58104;52.744;15.242;2022-11-22T00:54:36;99716.92;;;17.01;44.87
70555;BME280;58104;52.744;15.242;2022-11-22T00:57:01;99722.47;;;17.06;44.31
70555;BME280;58104;52.744;15.242;2022-11-22T00:59:27;99725.54;;;17.01;44.35
70555;BME280;58104;52.744;15.242;2022-11-22T01:01:52;99727.81;;;16.93;44.63
70555;BME280;58104;52.744;15.242;2022-11-22T01:04:18;99721.37;;;16.93;44.52
70555;BME280;58104;52.744;15.242;2022-11-22T01:06:43;99716.12;;;17.02;44.62
70555;BME280;58104;52.744;15.242;2022-11-22T01:09:09;99721.11;;;16.97;44.27
70555;BME280;58104;52.744;15.242;2022-11-22T01:11:34;99719.31;;;16.99;44.58
70555;BME280;58104;52.744;15.242;2022-11-22T01:14:00;99717.37;;;16.95;44.68
70555;BME280;58104;52.744;15.242;2022-11-22T01:16:25;99719.82;;;16.93;45.37
70555;BME280;58104;52.744;15.242;2022-11-22T01:18:51;99715.32;;;16.94;44.48
70555;BME280;58104;52.744;15.242;2022-11-22T01:21:16;99716.84;;;16.94;44.24
70555;BME280;58104;52.744;15.242;2022-11-22T01:23:42;99720.34;;;16.95;45.50
70555;BME280;58104;52.744;15.242;2022-11-22T01:26:08;99724.72;;;16.94;44.09
70555;BME280;58104;52.744;15.242;2022-11-22T01:28:33;99714.95;;;16.95;45.24
70555;BME280;58104;52.744;15.242;2022-11-22T01:30:58;99708.93;;;16.95;45.18
70555;BME280;58104;52.744;15.242;2022-11-22T01:33:23;99707.52;;;16.95;45.08
70555;BME280;58104;52.744;15.242;2022-11-22T01:35:49;99710.61;;;16.93;44.94
70555;BME280;58104;52.744;15.242;2022-11-22T01:38:15;99701.64;;;16.86;44.76
70555;BME280;58104;52.744;15.242;2022-11-22T01:40:40;99699.85;;;16.86;45.44
70555;BME280;58104;52.744;15.242;2022-11-22T01:43:13;99702.54;;;16.89;44.76
70555;BME280;58104;52.744;15.242;2022-11-22T01:45:41;99699.61;;;16.86;45.39
70555;BME280;58104;52.744;15.242;2022-11-22T01:47:57;99703.06;;;16.79;45.08
70555;BME280;58104;52.744;15.242;2022-11-22T01:50:22;99703.15;;;16.85;45.11
70555;BME280;58104;52.744;15.242;2022-11-22T01:52:47;99705.82;;;16.85;45.01
70555;BME280;58104;52.744;15.242;2022-11-22T01:55:13;99699.19;;;16.87;45.00
70555;BME280;58104;52.744;15.242;2022-11-22T01:57:40;99698.01;;;16.82;44.59
70555;BME280;58104;52.744;15.242;2022-11-22T02:00:06;99694.64;;;16.84;45.43
70555;BME280;58104;52.744;15.242;2022-11-22T02:02:29;99695.19;;;16.83;45.82
70555;BME280;58104;52.744;15.242;2022-11-22T02:04:56;99696.76;;;16.88;45.32
70555;BME280;58104;52.744;15.242;2022-11-22T02:07:22;99701.81;;;16.74;45.39
70555;BME280;58104;52.744;15.242;2022-11-22T02:09:47;99697.09;;;16.83;46.23
70555;BME280;58104;52.744;15.242;2022-11-22T02:12:12;99696.46;;;16.82;46.35
70555;BME280;58104;52.744;15.242;2022-11-22T02:14:37;99702.58;;;16.78;45.62
70555;BME280;58104;52.744;15.242;2022-11-22T02:17:02;99700.58;;;16.83;45.11
70555;BME280;58104;52.744;15.242;2022-11-22T02:19:37;99703.54;;;16.76;46.39
70555;BME280;58104;52.744;15.242;2022-11-22T02:21:56;99705.54;;;16.78;45.17
70555;BME280;58104;52.744;15.242;2022-11-22T02:24:24;99705.94;;;16.76;46.04
70555;BME280;58104;52.744;15.242;2022-11-22T02:26:45;99706.59;;;16.78;46.36
70555;BME280;58104;52.744;15.242;2022-11-22T02:29:09;99705.84;;;16.73;46.86
70555;BME280;58104;52.744;15.242;2022-11-22T02:31:38;99704.86;;;16.74;46.11
70555;BME280;58104;52.744;15.242;2022-11-22T02:34:00;99701.78;;;16.75;46.56
70555;BME280;58104;52.744;15.242;2022-11-22T02:36:26;99700.20;;;16.68;45.96
70555;BME280;58104;52.744;15.242;2022-11-22T02:38:51;99703.23;;;16.72;46.59
70555;BME280;58104;52.744;15.242;2022-11-22T02:41:17;99709.01;;;16.83;46.07
70555;BME280;58104;52.744;15.242;2022-11-22T02:43:45;99714.63;;;16.73;46.34
70555;BME280;58104;52.744;15.242;2022-11-22T02:46:10;99715.73;;;16.77;47.44
70555;BME280;58104;52.744;15.242;2022-11-22T02:48:34;99708.91;;;16.70;47.16
70555;BME280;58104;52.744;15.242;2022-11-22T02:50:59;99711.31;;;16.76;46.35
70555;BME280;58104;52.744;15.242;2022-11-22T02:53:24;99715.91;;;16.70;46.42
70555;BME280;58104;52.744;15.242;2022-11-22T02:55:50;99715.92;;;16.79;47.10
70555;BME280;58104;52.744;15.242;2022-11-22T02:58:15;99718.36;;;16.81;47.12
70555;BME280;58104;52.744;15.242;2022-11-22T03:00:41;99714.36;;;16.76;46.42
70555;BME280;58104;52.744;15.242;2022-11-22T03:03:06;99708.88;;;16.74;47.17
70555;BME280;58104;52.744;15.242;2022-11-22T03:05:32;99695.04;;;16.77;46.58
70555;BME280;58104;52.744;15.242;2022-11-22T03:07:57;99688.14;;;16.70;47.90
70555;BME280;58104;52.744;15.242;2022-11-22T03:10:23;99685.97;;;16.69;47.31
70555;BME280;58104;52.744;15.242;2022-11-22T03:12:48;99686.95;;;16.67;47.48
70555;BME280;58104;52.744;15.242;2022-11-22T03:15:14;99689.44;;;16.71;47.13
70555;BME280;58104;52.744;15.242;2022-11-22T03:17:39;99694.93;;;16.74;47.01
70555;BME280;58104;52.744;15.242;2022-11-22T03:20:06;99693.02;;;16.68;47.04
70555;BME280;58104;52.744;15.242;2022-11-22T03:22:30;99684.50;;;16.61;47.01
70555;BME280;58104;52.744;15.242;2022-11-22T03:24:55;99685.11;;;16.70;47.83
70555;BME280;58104;52.744;15.242;2022-11-22T03:27:21;99685.70;;;16.65;48.15
70555;BME280;58104;52.744;15.242;2022-11-22T03:29:46;99678.02;;;16.70;47.45
70555;BME280;58104;52.744;15.242;2022-11-22T03:32:12;99675.34;;;16.66;47.95
70555;BME280;58104;52.744;15.242;2022-11-22T03:34:37;99676.20;;;16.66;47.51
70555;BME280;58104;52.744;15.242;2022-11-22T03:37:03;99677.60;;;16.71;47.22
70555;BME280;58104;52.744;15.242;2022-11-22T03:39:28;99679.63;;;16.65;47.51
70555;BME280;58104;52.744;15.242;2022-11-22T03:41:54;99672.92;;;16.73;47.17
70555;BME280;58104;52.744;15.242;2022-11-22T03:44:19;99671.07;;;16.71;47.96
70555;BME280;58104;52.744;15.242;2022-11-22T03:46:45;99667.86;;;16.65;48.05
70555;BME280;58104;52.744;15.242;2022-11-22T03:49:11;99663.43;;;16.71;47.49
70555;BME280;58104;52.744;15.242;2022-11-22T03:51:36;99664.45;;;16.72;47.77
70555;BME280;58104;52.744;15.242;2022-11-22T03:54:02;99666.77;;;16.68;48.18
70555;BME280;58104;52.744;15.242;2022-11-22T03:56:27;99674.85;;;16.69;48.04
70555;BME280;58104;52.744;15.242;2022-11-22T03:58:53;99674.97;;;16.70;48.34
70555;BME280;58104;52.744;15.242;2022-11-22T04:01:19;99670.41;;;16.80;48.17
70555;BME280;58104;52.744;15.242;2022-11-22T04:03:44;99676.42;;;16.74;47.77
70555;BME280;58104;52.744;15.242;2022-11-22T04:06:09;99669.32;;;16.66;46.76
70555;BME280;58104;52.744;15.242;2022-11-22T04:08:35;99666.98;;;16.71;48.18
70555;BME280;58104;52.744;15.242;2022-11-22T04:11:00;99660.96;;;16.75;48.44
70555;BME280;58104;52.744;15.242;2022-11-22T04:13:26;99657.17;;;16.66;47.85
70555;BME280;58104;52.744;15.242;2022-11-22T04:15:51;99657.57;;;16.71;47.80
70555;BME280;58104;52.744;15.242;2022-11-22T04:18:17;99663.01;;;16.81;47.85
70555;BME280;58104;52.744;15.242;2022-11-22T04:20:42;99671.97;;;16.80;47.71
70555;BME280;58104;52.744;15.242;2022-11-22T04:23:09;99676.19;;;16.80;48.49
70555;BME280;58104;52.744;15.242;2022-11-22T04:25:34;99677.23;;;16.70;47.46
70555;BME280;58104;52.744;15.242;2022-11-22T04:27:58;99684.69;;;16.75;47.71
70555;BME280;58104;52.744;15.242;2022-11-22T04:30:25;99682.77;;;16.68;48.13
70555;BME280;58104;52.744;15.242;2022-11-22T04:32:51;99684.33;;;16.73;48.51
70555;BME280;58104;52.744;15.242;2022-11-22T04:35:15;99685.00;;;16.75;48.01
70555;BME280;58104;52.744;15.242;2022-11-22T04:37:40;99684.11;;;16.77;48.06
70555;BME280;58104;52.744;15.242;2022-11-22T04:40:07;99684.30;;;16.63;48.16
70555;BME280;58104;52.744;15.242;2022-11-22T04:42:31;99684.59;;;16.62;48.77
70555;BME280;58104;52.744;15.242;2022-11-22T04:44:56;99688.41;;;16.64;47.96
70555;BME280;58104;52.744;15.242;2022-11-22T04:47:21;99683.03;;;16.61;48.48
70555;BME280;58104;52.744;15.242;2022-11-22T04:49:47;99683.40;;;16.70;48.01
70555;BME280;58104;52.744;15.242;2022-11-22T04:52:13;99675.58;;;16.59;48.68
70555;BME280;58104;52.744;15.242;2022-11-22T04:54:38;99667.75;;;16.76;48.97
70555;BME280;58104;52.744;15.242;2022-11-22T04:57:03;99659.89;;;16.81;48.54
70555;BME280;58104;52.744;15.242;2022-11-22T04:59:29;99657.00;;;16.75;48.44
70555;BME280;58104;52.744;15.242;2022-11-22T05:01:54;99655.21;;;16.78;48.52
70555;BME280;58104;52.744;15.242;2022-11-22T05:04:20;99654.10;;;16.69;48.15
70555;BME280;58104;52.744;15.242;2022-11-22T05:06:45;99649.31;;;16.76;48.59
70555;BME280;58104;52.744;15.242;2022-11-22T05:09:11;99652.65;;;16.77;48.83
70555;BME280;58104;52.744;15.242;2022-11-22T05:11:36;99651.86;;;16.79;48.27
70555;BME280;58104;52.744;15.242;2022-11-22T05:14:01;99657.42;;;16.70;47.91
70555;BME280;58104;52.744;15.242;2022-11-22T05:16:27;99661.22;;;16.64;49.16
70555;BME280;58104;52.744;15.242;2022-11-22T05:18:52;99659.63;;;16.71;48.22
70555;BME280;58104;52.744;15.242;2022-11-22T05:21:18;99660.03;;;16.69;47.70
70555;BME280;58104;52.744;15.242;2022-11-22T05:23:43;99658.26;;;16.74;48.36
70555;BME280;58104;52.744;15.242;2022-11-22T05:26:09;99659.56;;;16.71;48.95
70555;BME280;58104;52.744;15.242;2022-11-22T05:28:35;99658.59;;;16.63;48.72
70555;BME280;58104;52.744;15.242;2022-11-22T05:31:05;99654.99;;;16.67;48.79
70555;BME280;58104;52.744;15.242;2022-11-22T05:33:24;99647.41;;;16.70;48.83
70555;BME280;58104;52.744;15.242;2022-11-22T05:35:50;99652.40;;;16.69;48.75
70555;BME280;58104;52.744;15.242;2022-11-22T05:38:15;99661.59;;;16.63;49.04
70555;BME280;58104;52.744;15.242;2022-11-22T05:40:41;99665.26;;;16.66;48.76
70555;BME280;58104;52.744;15.242;2022-11-22T05:43:06;99668.63;;;16.70;48.71
70555;BME280;58104;52.744;15.242;2022-11-22T05:45:32;99664.88;;;16.63;49.85
70555;BME280;58104;52.744;15.242;2022-11-22T05:47:57;99664.25;;;16.75;49.80
70555;BME280;58104;52.744;15.242;2022-11-22T05:50:23;99659.78;;;16.77;49.58
70555;BME280;58104;52.744;15.242;2022-11-22T05:52:48;99658.80;;;16.82;48.56
70555;BME280;58104;52.744;15.242;2022-11-22T05:55:14;99648.10;;;16.85;49.67
70555;BME280;58104;52.744;15.242;2022-11-22T05:57:39;99641.39;;;16.85;49.05
70555;BME280;58104;52.744;15.242;2022-11-22T06:00:06;99638.82;;;16.86;48.49
70555;BME280;58104;52.744;15.242;2022-11-22T06:02:30;99636.27;;;16.79;48.42
70555;BME280;58104;52.744;15.242;2022-11-22T06:04:55;99639.07;;;16.81;48.91
70555;BME280;58104;52.744;15.242;2022-11-22T06:07:21;99637.67;;;16.74;47.96
70555;BME280;58104;52.744;15.242;2022-11-22T06:09:46;99639.54;;;16.69;48.47
70555;BME280;58104;52.744;15.242;2022-11-22T06:12:12;99639.89;;;16.72;49.43
70555;BME280;58104;52.744;15.242;2022-11-22T06:14:38;99647.80;;;16.84;48.69
70555;BME280;58104;52.744;15.242;2022-11-22T06:17:03;99657.24;;;16.78;48.96
70555;BME280;58104;52.744;15.242;2022-11-22T06:19:28;99657.55;;;16.83;49.03
70555;BME280;58104;52.744;15.242;2022-11-22T06:21:54;99667.71;;;16.84;48.89
70555;BME280;58104;52.744;15.242;2022-11-22T06:24:19;99666.67;;;16.85;49.60
70555;BME280;58104;52.744;15.242;2022-11-22T06:26:45;99669.49;;;16.73;48.71
70555;BME280;58104;52.744;15.242;2022-11-22T06:29:10;99668.95;;;16.99;51.12
70555;BME280;58104;52.744;15.242;2022-11-22T06:31:36;99667.67;;;17.26;50.31
70555;BME280;58104;52.744;15.242;2022-11-22T06:34:01;99673.21;;;17.47;50.07
70555;BME280;58104;52.744;15.242;2022-11-22T06:36:28;99681.00;;;17.58;49.84
70555;BME280;58104;52.744;15.242;2022-11-22T06:38:52;99688.80;;;17.65;49.10
70555;BME280;58104;52.744;15.242;2022-11-22T06:41:19;99692.30;;;17.59;49.40
70555;BME280;58104;52.744;15.242;2022-11-22T06:43:45;99697.68;;;17.71;49.26
70555;BME280;58104;52.744;15.242;2022-11-22T06:46:10;99697.43;;;17.72;49.61
70555;BME280;58104;52.744;15.242;2022-11-22T06:48:36;99694.56;;;17.55;49.65
70555;BME280;58104;52.744;15.242;2022-11-22T06:51:01;99697.96;;;17.56;49.87
70555;BME280;58104;52.744;15.242;2022-11-22T06:53:26;99704.01;;;17.53;49.63
70555;BME280;58104;52.744;15.242;2022-11-22T06:55:51;99702.25;;;17.44;49.67
70555;BME280;58104;52.744;15.242;2022-11-22T06:58:16;99700.76;;;17.49;49.88
70555;BME280;58104;52.744;15.242;2022-11-22T07:00:42;99704.17;;;17.40;49.62
70555;BME280;58104;52.744;15.242;2022-11-22T07:03:07;99695.24;;;17.44;49.83
70555;BME280;58104;52.744;15.242;2022-11-22T07:05:33;99692.08;;;17.42;49.78
70555;BME280;58104;52.744;15.242;2022-11-22T07:07:58;99690.64;;;17.40;49.77
70555;BME280;58104;52.744;15.242;2022-11-22T07:10:24;99690.67;;;17.45;49.62
70555;BME280;58104;52.744;15.242;2022-11-22T07:12:49;99691.27;;;17.37;49.92
70555;BME280;58104;52.744;15.242;2022-11-22T07:15:15;99689.28;;;17.35;49.58
70555;BME280;58104;52.744;15.242;2022-11-22T07:17:40;99690.79;;;17.41;49.97
70555;BME280;58104;52.744;15.242;2022-11-22T07:20:06;99690.94;;;17.44;49.40
70555;BME280;58104;52.744;15.242;2022-11-22T07:22:31;99696.22;;;17.45;49.43
70555;BME280;58104;52.744;15.242;2022-11-22T07:24:56;99697.58;;;17.41;49.17
70555;BME280;58104;52.744;15.242;2022-11-22T07:27:22;99700.20;;;17.46;48.94
70555;BME280;58104;52.744;15.242;2022-11-22T07:29:47;99704.09;;;17.10;44.92
70555;BME280;58104;52.744;15.242;2022-11-22T07:32:12;99699.30;;;15.91;44.95
70555;BME280;58104;52.744;15.242;2022-11-22T07:34:38;99704.21;;;15.21;43.49
70555;BME280;58104;52.744;15.242;2022-11-22T07:37:03;99703.95;;;14.43;44.63
70555;BME280;58104;52.744;15.242;2022-11-22T07:39:28;99701.45;;;13.79;43.02
70555;BME280;58104;52.744;15.242;2022-11-22T07:41:54;99697.42;;;13.70;45.01
70555;BME280;58104;52.744;15.242;2022-11-22T07:44:19;99691.89;;;13.65;44.09
70555;BME280;58104;52.744;15.242;2022-11-22T07:46:44;99697.97;;;13.39;44.94
70555;BME280;58104;52.744;15.242;2022-11-22T07:49:10;99701.21;;;13.17;43.54
70555;BME280;58104;52.744;15.242;2022-11-22T07:51:35;99702.94;;;13.39;42.04
70555;BME280;58104;52.744;15.242;2022-11-22T07:54:00;99708.12;;;13.36;42.14
70555;BME280;58104;52.744;15.242;2022-11-22T07:56:26;99702.84;;;13.32;42.33
70555;BME280;58104;52.744;15.242;2022-11-22T07:58:51;99696.95;;;13.25;41.91
70555;BME280;58104;52.744;15.242;2022-11-22T08:01:18;99692.90;;;13.14;40.16
70555;BME280;58104;52.744;15.242;2022-11-22T08:03:43;99688.75;;;13.04;41.39
70555;BME280;58104;52.744;15.242;2022-11-22T08:06:10;99688.01;;;13.17;41.68
70555;BME280;58104;52.744;15.242;2022-11-22T08:08:34;99684.08;;;13.06;41.12
70555;BME280;58104;52.744;15.242;2022-11-22T08:10:58;99683.98;;;13.16;40.82
70555;BME280;58104;52.744;15.242;2022-11-22T08:13:24;99683.35;;;12.80;40.86
70555;BME280;58104;52.744;15.242;2022-11-22T08:15:49;99682.13;;;12.86;41.29
70555;BME280;58104;52.744;15.242;2022-11-22T08:18:14;99685.64;;;12.84;40.52
70555;BME280;58104;52.744;15.242;2022-11-22T08:20:39;99692.90;;;12.92;39.78
70555;BME280;58104;52.744;15.242;2022-11-22T08:23:05;99690.64;;;12.80;42.20
70555;BME280;58104;52.744;15.242;2022-11-22T08:25:30;99696.21;;;14.07;42.54
70555;BME280;58104;52.744;15.242;2022-11-22T08:27:55;99691.52;;;14.90;41.42
70555;BME280;58104;52.744;15.242;2022-11-22T08:30:21;99685.32;;;15.69;40.92
70555;BME280;58104;52.744;15.242;2022-11-22T08:32:46;99685.47;;;16.19;40.21
70555;BME280;58104;52.744;15.242;2022-11-22T08:35:12;99691.38;;;16.45;40.02
70555;BME280;58104;52.744;15.242;2022-11-22T08:37:37;99690.27;;;16.76;40.05
70555;BME280;58104;52.744;15.242;2022-11-22T08:40:04;99688.72;;;16.97;40.18
70555;BME280;58104;52.744;15.242;2022-11-22T08:42:28;99696.95;;;17.04;40.47
70555;BME280;58104;52.744;15.242;2022-11-22T08:44:54;99699.73;;;17.16;40.63
70555;BME280;58104;52.744;15.242;2022-11-22T08:47:19;99692.91;;;17.28;40.54
70555;BME280;58104;52.744;15.242;2022-11-22T08:49:45;99684.87;;;17.30;41.01
70555;BME280;58104;52.744;15.242;2022-11-22T08:52:10;99685.70;;;17.48;40.87
70555;BME280;58104;52.744;15.242;2022-11-22T08:54:36;99685.72;;;17.33;40.76
70555;BME280;58104;52.744;15.242;2022-11-22T08:57:01;99687.12;;;17.42;40.97
70555;BME280;58104;52.744;15.242;2022-11-22T08:59:27;99689.73;;;17.49;41.13
70555;BME280;58104;52.744;15.242;2022-11-22T09:01:52;99690.56;;;17.60;41.22
70555;BME280;58104;52.744;15.242;2022-11-22T09:04:17;99687.66;;;17.52;41.02
70555;BME280;58104;52.744;15.242;2022-11-22T09:06:42;99695.55;;;17.62;41.41
70555;BME280;58104;52.744;15.242;2022-11-22T09:09:08;99691.80;;;17.61;41.64
70555;BME280;58104;52.744;15.242;2022-11-22T09:11:33;99684.38;;;17.65;41.89
70555;BME280;58104;52.744;15.242;2022-11-22T09:13:58;99683.31;;;17.65;41.90
70555;BME280;58104;52.744;15.242;2022-11-22T09:16:24;99676.61;;;17.59;41.96
70555;BME280;58104;52.744;15.242;2022-11-22T09:18:50;99674.57;;;17.62;41.84
70555;BME280;58104;52.744;15.242;2022-11-22T09:21:16;99674.40;;;17.60;41.65
70555;BME280;58104;52.744;15.242;2022-11-22T09:23:40;99680.33;;;17.59;41.68
70555;BME280;58104;52.744;15.242;2022-11-22T09:26:07;99684.15;;;17.57;41.63
70555;BME280;58104;52.744;15.242;2022-11-22T09:28:31;99682.91;;;17.52;41.70
70555;BME280;58104;52.744;15.242;2022-11-22T09:30:58;99681.44;;;17.56;41.61
70555;BME280;58104;52.744;15.242;2022-11-22T09:33:21;99686.27;;;17.43;41.62
70555;BME280;58104;52.744;15.242;2022-11-22T09:35:47;99685.71;;;17.58;41.59
70555;BME280;58104;52.744;15.242;2022-11-22T09:38:12;99673.17;;;17.49;41.68
70555;BME280;58104;52.744;15.242;2022-11-22T09:40:38;99659.06;;;17.49;41.70
70555;BME280;58104;52.744;15.242;2022-11-22T09:43:10;99653.60;;;17.48;41.57
70555;BME280;58104;52.744;15.242;2022-11-22T09:45:38;99653.10;;;17.51;41.45
70555;BME280;58104;52.744;15.242;2022-11-22T09:48:02;99660.59;;;17.56;41.66
70555;BME280;58104;52.744;15.242;2022-11-22T09:50:25;99662.48;;;17.51;41.48
70555;BME280;58104;52.744;15.242;2022-11-22T09:52:50;99663.21;;;17.64;41.83
70555;BME280;58104;52.744;15.242;2022-11-22T09:55:17;99665.73;;;17.63;42.56
70555;BME280;58104;52.744;15.242;2022-11-22T09:57:40;99675.45;;;17.71;41.78
70555;BME280;58104;52.744;15.242;2022-11-22T10:00:04;99669.17;;;17.85;41.92
70555;BME280;58104;52.744;15.242;2022-11-22T10:02:30;99669.03;;;17.94;42.08
70555;BME280;58104;52.744;15.242;2022-11-22T10:04:55;99669.14;;;17.90;42.04
70555;BME280;58104;52.744;15.242;2022-11-22T10:07:19;99668.97;;;17.89;42.46
70555;BME280;58104;52.744;15.242;2022-11-22T10:09:48;99664.76;;;18.00;42.21
70555;BME280;58104;52.744;15.242;2022-11-22T10:12:11;99663.84;;;18.03;42.40
70555;BME280;58104;52.744;15.242;2022-11-22T10:14:39;99662.28;;;17.98;42.56
70555;BME280;58104;52.744;15.242;2022-11-22T10:17:04;99662.01;;;17.96;42.64
70555;BME280;58104;52.744;15.242;2022-11-22T10:19:28;99651.67;;;18.10;42.86
70555;BME280;58104;52.744;15.242;2022-11-22T10:21:49;99652.09;;;18.06;43.17
70555;BME280;58104;52.744;15.242;2022-11-22T10:24:15;99650.85;;;18.15;43.44
70555;BME280;58104;52.744;15.242;2022-11-22T10:26:39;99652.46;;;18.13;43.51
70555;BME280;58104;52.744;15.242;2022-11-22T10:29:14;99653.21;;;18.05;43.49
70555;BME280;58104;52.744;15.242;2022-11-22T10:31:35;99651.03;;;18.07;42.97
70555;BME280;58104;52.744;15.242;2022-11-22T10:34:02;99654.65;;;18.17;42.56
70555;BME280;58104;52.744;15.242;2022-11-22T10:36:28;99664.16;;;18.00;42.31
70555;BME280;58104;52.744;15.242;2022-11-22T10:38:57;99671.79;;;18.02;42.43
70555;BME280;58104;52.744;15.242;2022-11-22T10:41:24;99681.98;;;18.02;43.34
70555;BME280;58104;52.744;15.242;2022-11-22T10:43:43;99684.24;;;18.02;43.57
70555;BME280;58104;52.744;15.242;2022-11-22T10:46:10;99682.19;;;18.10;42.88
70555;BME280;58104;52.744;15.242;2022-11-22T10:48:33;99677.16;;;18.05;43.32
70555;BME280;58104;52.744;15.242;2022-11-22T10:51:01;99681.61;;;18.07;43.00
70555;BME280;58104;52.744;15.242;2022-11-22T10:53:29;99684.05;;;18.16;42.49
70555;BME280;58104;52.744;15.242;2022-11-22T10:55:51;99684.08;;;18.13;43.37
70555;BME280;58104;52.744;15.242;2022-11-22T10:58:16;99679.06;;;18.24;43.42
70555;BME280;58104;52.744;15.242;2022-11-22T11:00:39;99674.01;;;18.05;43.50
70555;BME280;58104;52.744;15.242;2022-11-22T11:03:12;99675.57;;;18.15;43.59
70555;BME280;58104;52.744;15.242;2022-11-22T11:05:33;99672.21;;;18.04;43.49
70555;BME280;58104;52.744;15.242;2022-11-22T11:07:53;99677.36;;;18.11;43.10
70555;BME280;58104;52.744;15.242;2022-11-22T11:10:21;99674.39;;;18.17;43.05
70555;BME280;58104;52.744;15.242;2022-11-22T11:12:45;99669.93;;;18.04;43.47
70555;BME280;58104;52.744;15.242;2022-11-22T11:15:16;99666.49;;;18.07;42.70
70555;BME280;58104;52.744;15.242;2022-11-22T11:17:37;99674.83;;;17.90;42.80
70555;BME280;58104;52.744;15.242;2022-11-22T11:20:05;99676.44;;;18.08;42.84
70555;BME280;58104;52.744;15.242;2022-11-22T11:22:27;99681.14;;;18.05;43.11
70555;BME280;58104;52.744;15.242;2022-11-22T11:24:52;99677.99;;;18.06;43.27
70555;BME280;58104;52.744;15.242;2022-11-22T11:27:19;99673.47;;;18.05;43.53
70555;BME280;58104;52.744;15.242;2022-11-22T11:29:45;99673.46;;;17.96;42.98
70555;BME280;58104;52.744;15.242;2022-11-22T11:32:10;99668.17;;;18.10;42.96
70555;BME280;58104;52.744;15.242;2022-11-22T11:34:34;99656.87;;;18.13;42.83
70555;BME280;58104;52.744;15.242;2022-11-22T11:37:00;99657.97;;;17.93;42.90
70555;BME280;58104;52.744;15.242;2022-11-22T11:39:28;99670.77;;;18.01;42.61
70555;BME280;58104;52.744;15.242;2022-11-22T11:41:51;99672.39;;;17.98;42.67
70555;BME280;58104;52.744;15.242;2022-11-22T11:44:25;99686.45;;;18.02;42.53
70555;BME280;58104;52.744;15.242;2022-11-22T11:46:44;99693.22;;;17.96;42.69
70555;BME280;58104;52.744;15.242;2022-11-22T11:49:09;99698.53;;;17.95;43.10
70555;BME280;58104;52.744;15.242;2022-11-22T11:51:36;99707.38;;;17.87;43.22
70555;BME280;58104;52.744;15.242;2022-11-22T11:54:01;99722.24;;;17.81;43.28
70555;BME280;58104;52.744;15.242;2022-11-22T11:56:31;99727.63;;;17.86;43.54
70555;BME280;58104;52.744;15.242;2022-11-22T11:58:51;99729.36;;;17.90;43.60
70555;BME280;58104;52.744;15.242;2022-11-22T12:01:17;99730.19;;;17.97;43.58
70555;BME280;58104;52.744;15.242;2022-11-22T12:03:40;99714.75;;;17.92;43.79
70555;BME280;58104;52.744;15.242;2022-11-22T12:06:11;99703.61;;;18.06;44.05
70555;BME280;58104;52.744;15.242;2022-11-22T12:08:31;99708.52;;;18.15;43.70
70555;BME280;58104;52.744;15.242;2022-11-22T12:11:01;99712.56;;;18.08;43.98
70555;BME280;58104;52.744;15.242;2022-11-22T12:13:27;99714.71;;;18.04;44.26
70555;BME280;58104;52.744;15.242;2022-11-22T12:15:53;99714.53;;;18.08;44.17
70555;BME280;58104;52.744;15.242;2022-11-22T12:18:24;99710.16;;;18.25;44.25
70555;BME280;58104;52.744;15.242;2022-11-22T12:20:42;99706.39;;;18.15;44.34
70555;BME280;58104;52.744;15.242;2022-11-22T12:23:11;99704.87;;;18.15;44.32
70555;BME280;58104;52.744;15.242;2022-11-22T12:25:32;99703.11;;;18.10;44.39
70555;BME280;58104;52.744;15.242;2022-11-22T12:27:55;99699.25;;;18.18;44.59
70555;BME280;58104;52.744;15.242;2022-11-22T12:30:22;99698.22;;;18.17;44.94
70555;BME280;58104;52.744;15.242;2022-11-22T12:32:52;99693.99;;;18.18;45.09
70555;BME280;58104;52.744;15.242;2022-11-22T12:35:14;99695.44;;;18.29;45.09
70555;BME280;58104;52.744;15.242;2022-11-22T12:37:40;99695.97;;;18.31;45.02
70555;BME280;58104;52.744;15.242;2022-11-22T12:40:05;99702.80;;;18.26;45.13